Time;durP1;ratioP1;P1;durP2;ratioP2;P2;SDS_P1;SDS_P2;PMS_P1;PMS_P2;Temp;Humidity;BMP_temperature;BMP_pressure;BME280_temperature;BME280_humidity;BME280_pressure;Samples;Min_cycle;Max_cycle;Signal;HPM_P1;HPM_P2
2023/11/30 00:00:56;;;;;;;3.03;2.53;;;;;;;0.41;82.29;94212.75;4960234;28;20189;-82
2023/11/30 00:03:21;;;;;;;2.60;2.33;;;;;;;0.38;82.95;94220.66;4941800;29;20216;-83
2023/11/30 00:05:47;;;;;;;2.53;2.33;;;;;;;0.39;83.10;94212.06;4957676;28;20280;-81
2023/11/30 00:08:12;;;;;;;3.40;2.40;;;;;;;0.19;83.55;94205.94;4961625;28;20248;-81
2023/11/30 00:10:37;;;;;;;3.60;2.33;;;;;;;0.25;83.40;94206.25;4957490;28;20256;-81
2023/11/30 00:13:04;;;;;;;2.37;2.03;;;;;;;0.30;83.37;94202.56;4941205;28;20201;-82
2023/11/30 00:15:29;;;;;;;5.07;2.57;;;;;;;0.34;82.56;94193.72;4973945;28;20744;-82
2023/11/30 00:17:54;;;;;;;3.83;1.97;;;;;;;0.19;83.13;94196.53;4956530;28;20185;-83
2023/11/30 00:20:20;;;;;;;2.37;1.83;;;;;;;0.25;82.78;94196.03;4968239;28;20196;-83
2023/11/30 00:22:46;;;;;;;3.23;2.20;;;;;;;0.28;83.06;94200.94;4973292;28;20204;-82
2023/11/30 00:25:12;;;;;;;3.60;2.13;;;;;;;0.29;82.45;94186.41;4955493;28;20193;-82
2023/11/30 00:27:37;;;;;;;5.03;2.33;;;;;;;0.27;82.63;94185.72;4961080;28;20209;-82
2023/11/30 00:30:03;;;;;;;3.07;2.30;;;;;;;0.20;83.06;94187.13;4957463;28;20189;-82
2023/11/30 00:32:28;;;;;;;2.40;2.10;;;;;;;0.21;82.54;94193.84;4957253;28;20213;-82
2023/11/30 00:34:53;;;;;;;3.20;1.93;;;;;;;0.30;82.51;94171.91;4956239;28;20181;-83
2023/11/30 00:37:21;;;;;;;2.10;1.90;;;;;;;0.29;82.45;94168.53;4959559;28;20193;-82
2023/11/30 00:39:47;;;;;;;3.47;2.23;;;;;;;0.23;82.79;94167.28;4958730;28;20667;-82
2023/11/30 00:42:12;;;;;;;4.10;2.47;;;;;;;0.25;82.99;94164.59;4965245;28;20208;-82
2023/11/30 00:44:37;;;;;;;3.37;2.33;;;;;;;0.24;82.79;94168.88;4943321;29;20188;-83
2023/11/30 00:47:03;;;;;;;2.60;2.00;;;;;;;0.26;83.05;94159.34;4944556;28;20199;-82
2023/11/30 00:49:28;;;;;;;2.93;2.07;;;;;;;0.26;82.81;94159.34;4960165;28;20217;-82
2023/11/30 00:51:53;;;;;;;2.03;1.70;;;;;;;0.22;83.28;94155.44;4941893;29;20232;-82
2023/11/30 00:54:19;;;;;;;2.43;2.00;;;;;;;0.29;82.41;94150.66;4956971;28;20200;-83
2023/11/30 00:56:44;;;;;;;3.13;2.30;;;;;;;0.06;83.89;94155.00;4972904;28;20189;-83
2023/11/30 00:59:09;;;;;;;3.13;2.47;;;;;;;0.16;83.59;94155.91;4957771;28;20248;-82
2023/11/30 01:01:35;;;;;;;2.50;2.03;;;;;;;0.07;83.62;94161.72;4958488;28;20624;-82
2023/11/30 01:04:00;;;;;;;3.50;2.43;;;;;;;0.12;83.36;94162.19;4940547;28;20206;-84
2023/11/30 01:06:25;;;;;;;2.57;2.30;;;;;;;0.18;83.51;94166.03;4957081;29;20189;-83
2023/11/30 01:08:51;;;;;;;2.20;1.97;;;;;;;0.27;82.81;94167.84;4957438;28;20216;-82
2023/11/30 01:11:16;;;;;;;2.90;2.33;;;;;;;0.20;83.56;94174.38;4957364;28;20192;-82
2023/11/30 01:13:41;;;;;;;2.53;2.07;;;;;;;0.32;83.03;94173.41;4973852;28;20258;-83
2023/11/30 01:16:10;;;;;;;2.80;2.23;;;;;;;0.37;82.35;94168.75;4940172;29;20244;-82
2023/11/30 01:18:35;;;;;;;2.10;1.90;;;;;;;0.34;82.65;94168.16;4932028;29;20256;-83
2023/11/30 01:21:01;;;;;;;2.60;2.10;;;;;;;0.27;82.34;94162.75;4958054;28;20642;-82
2023/11/30 01:23:26;;;;;;;2.43;2.23;;;;;;;0.25;82.40;94154.38;4972583;28;20216;-82
2023/11/30 01:25:51;;;;;;;4.17;2.40;;;;;;;0.30;81.92;94149.75;4942358;29;20189;-83
2023/11/30 01:28:17;;;;;;;3.13;2.00;;;;;;;0.30;82.33;94156.59;4956146;28;20272;-82
2023/11/30 01:30:42;;;;;;;2.90;2.30;;;;;;;0.20;82.25;94141.19;4972832;28;20712;-83
2023/11/30 01:33:07;;;;;;;3.67;2.57;;;;;;;0.17;82.54;94151.59;4961795;28;20638;-81
2023/11/30 01:35:33;;;;;;;2.73;2.13;;;;;;;0.08;82.96;94155.69;4956568;28;20651;-83
2023/11/30 01:37:58;;;;;;;4.60;2.80;;;;;;;-0.04;83.35;94161.75;4928073;29;20178;-83
2023/11/30 01:40:23;;;;;;;2.57;2.07;;;;;;;0.06;83.06;94160.09;4953506;28;20220;-84
2023/11/30 01:42:50;;;;;;;5.13;2.37;;;;;;;0.03;83.16;94162.91;4940471;29;20216;-82
2023/11/30 01:45:15;;;;;;;2.93;1.90;;;;;;;0.09;82.83;94159.03;4939640;28;20659;-83
2023/11/30 01:47:41;;;;;;;2.63;2.00;;;;;;;0.10;82.38;94150.47;4956254;28;20268;-83
2023/11/30 01:50:06;;;;;;;3.77;2.00;;;;;;;0.13;82.83;94138.28;4956419;28;20568;-82
2023/11/30 01:52:31;;;;;;;2.27;2.07;;;;;;;0.10;82.49;94135.97;4924406;28;20201;-82
2023/11/30 01:54:59;;;;;;;3.27;2.10;;;;;;;0.16;82.00;94144.88;4960173;28;20181;-83
2023/11/30 01:57:24;;;;;;;2.40;1.93;;;;;;;0.14;82.44;94147.56;4970513;28;20185;-83
2023/11/30 01:59:50;;;;;;;2.73;2.10;;;;;;;0.14;82.21;94147.56;4972692;28;20673;-83
2023/11/30 02:02:16;;;;;;;2.63;1.87;;;;;;;0.17;82.03;94141.41;4950630;28;20251;-84
2023/11/30 02:04:44;;;;;;;1.67;1.57;;;;;;;0.11;82.17;94127.38;4939753;29;20188;-84
2023/11/30 02:07:10;;;;;;;1.53;1.43;;;;;;;0.13;81.84;94119.59;4966771;28;20192;-83
2023/11/30 02:09:35;;;;;;;2.20;2.00;;;;;;;0.07;81.72;94120.06;4947732;29;20270;-83
2023/11/30 02:12:01;;;;;;;2.00;1.70;;;;;;;0.03;81.50;94106.75;4956326;28;20208;-83
2023/11/30 02:14:26;;;;;;;1.60;1.37;;;;;;;-0.03;81.67;94110.56;4953662;28;20586;-84
2023/11/30 02:16:51;;;;;;;1.97;1.53;;;;;;;-0.08;82.86;94114.44;4955249;28;20208;-84
2023/11/30 02:19:16;;;;;;;1.83;1.70;;;;;;;-0.04;82.39;94110.69;4972407;28;20268;-84
2023/11/30 02:21:49;;;;;;;2.07;1.80;;;;;;;-0.03;81.82;94109.75;4956887;28;20653;-84
2023/11/30 02:24:14;;;;;;;1.40;1.20;;;;;;;-0.08;82.30;94114.44;4924187;28;20213;-84
2023/11/30 02:26:40;;;;;;;2.03;1.60;;;;;;;-0.13;82.25;94114.78;4958626;28;20263;-83
2023/11/30 02:29:06;;;;;;;2.03;1.63;;;;;;;-0.16;81.90;94101.44;4956690;28;20221;-84
2023/11/30 02:31:32;;;;;;;1.47;1.30;;;;;;;-0.09;81.81;94102.56;4972588;28;20185;-84
2023/11/30 02:33:57;;;;;;;3.20;1.37;;;;;;;-0.10;81.64;94114.53;4956242;28;20217;-84
2023/11/30 02:36:22;;;;;;;2.37;1.23;;;;;;;0.02;80.84;94107.69;4939740;29;20268;-84
2023/11/30 02:38:48;;;;;;;1.27;1.10;;;;;;;0.05;81.10;94099.78;4957583;29;20193;-84
2023/11/30 02:41:13;;;;;;;1.30;1.20;;;;;;;0.14;80.57;94101.59;4958772;28;20203;-83
2023/11/30 02:43:39;;;;;;;1.17;0.90;;;;;;;0.12;80.10;94093.28;4956325;28;20654;-83
2023/11/30 02:46:08;;;;;;;1.00;1.00;;;;;;;0.13;79.88;94094.06;4934225;28;20643;-84
2023/11/30 02:48:33;;;;;;;1.77;1.40;;;;;;;0.19;79.44;94089.31;4940485;29;20308;-84
2023/11/30 02:50:58;;;;;;;2.10;0.90;;;;;;;0.18;79.58;94092.00;4939650;28;20193;-84
2023/11/30 02:53:24;;;;;;;1.67;1.10;;;;;;;0.18;79.70;94086.88;4955512;28;20209;-84
2023/11/30 02:55:49;;;;;;;1.17;1.00;;;;;;;0.07;78.80;94085.16;4956037;29;20600;-83
2023/11/30 02:58:14;;;;;;;1.73;1.20;;;;;;;0.19;78.73;94085.94;4974096;28;20178;-83
2023/11/30 03:00:40;;;;;;;3.40;1.40;;;;;;;0.19;78.90;94088.50;4950414;29;20189;-85
2023/11/30 03:03:05;;;;;;;1.47;1.37;;;;;;;0.12;79.16;94085.59;4948987;28;20201;-85
2023/11/30 03:05:31;;;;;;;1.27;1.17;;;;;;;0.06;79.67;94088.63;4945801;29;20200;-84
2023/11/30 03:07:56;;;;;;;2.10;1.77;;;;;;;0.06;80.29;94087.81;4955363;28;20197;-84
2023/11/30 03:10:21;;;;;;;2.83;1.73;;;;;;;0.09;79.97;94080.75;4959862;28;20236;-83
2023/11/30 03:12:47;;;;;;;2.03;1.63;;;;;;;0.05;80.58;94081.91;4956060;28;20212;-83
2023/11/30 03:15:14;;;;;;;3.87;2.10;;;;;;;0.06;80.17;94075.88;4951192;28;20312;-83
2023/11/30 03:17:39;;;;;;;2.30;2.10;;;;;;;0.02;80.92;94079.59;4955797;29;20194;-83
2023/11/30 03:20:05;;;;;;;3.93;2.10;;;;;;;-0.03;81.17;94074.84;4971413;28;20185;-83
2023/11/30 03:22:31;;;;;;;3.20;2.10;;;;;;;0.03;80.91;94065.91;4953476;28;20208;-82
2023/11/30 03:24:56;;;;;;;3.40;2.10;;;;;;;0.13;80.35;94059.16;4959196;28;20192;-82
2023/11/30 03:27:21;;;;;;;4.23;1.80;;;;;;;0.11;80.77;94055.09;4971276;28;20192;-83
2023/11/30 03:29:47;;;;;;;2.40;1.70;;;;;;;0.02;80.72;94051.53;4970668;28;20189;-83
2023/11/30 03:32:12;;;;;;;2.30;1.80;;;;;;;0.06;80.59;94044.44;4956437;28;20216;-83
2023/11/30 03:34:37;;;;;;;2.03;1.87;;;;;;;0.14;79.80;94045.44;4955758;29;20221;-82
2023/11/30 03:37:03;;;;;;;1.60;1.50;;;;;;;0.10;79.88;94033.88;4948642;28;20189;-84
2023/11/30 03:39:28;;;;;;;1.43;1.33;;;;;;;0.12;80.18;94041.41;4954847;28;20192;-84
2023/11/30 03:41:53;;;;;;;2.10;1.83;;;;;;;0.12;79.41;94038.84;4941821;29;20197;-83
2023/11/30 03:44:19;;;;;;;1.87;1.70;;;;;;;0.12;79.85;94037.09;4945774;29;20670;-82
2023/11/30 03:46:44;;;;;;;2.03;1.80;;;;;;;0.16;79.89;94038.47;4956401;28;20191;-83
2023/11/30 03:49:09;;;;;;;2.10;1.50;;;;;;;0.22;79.62;94032.88;4950558;28;20201;-82
2023/11/30 03:51:35;;;;;;;1.83;1.70;;;;;;;0.24;79.43;94033.56;4956932;28;20192;-82
2023/11/30 03:54:00;;;;;;;2.63;1.53;;;;;;;0.17;79.77;94022.22;4939519;29;20217;-82
2023/11/30 03:56:26;;;;;;;3.17;1.73;;;;;;;0.28;79.44;94011.97;4965582;28;20282;-82
2023/11/30 03:58:51;;;;;;;1.90;1.50;;;;;;;0.31;79.49;94015.22;4961799;28;20662;-83
2023/11/30 04:01:23;;;;;;;2.67;1.70;;;;;;;0.30;79.20;94013.59;4965675;28;20485;-84
2023/11/30 04:03:49;;;;;;;1.50;1.40;;;;;;;0.32;79.38;94006.63;4970735;28;20201;-82
2023/11/30 04:06:22;;;;;;;2.27;1.40;;;;;;;0.34;78.74;93997.09;4957907;28;20196;-83
2023/11/30 04:08:47;;;;;;;1.50;1.40;;;;;;;0.46;78.27;93993.56;4957226;28;20638;-84
2023/11/30 04:11:16;;;;;;;1.60;1.50;;;;;;;0.54;77.80;93986.88;4953951;28;20212;-82
2023/11/30 04:13:45;;;;;;;2.67;1.50;;;;;;;0.53;77.72;93995.50;4953984;28;20201;-82
2023/11/30 04:16:14;;;;;;;2.00;1.70;;;;;;;0.49;77.43;93988.19;4954454;28;20184;-83
2023/11/30 04:18:39;;;;;;;2.43;1.50;;;;;;;0.43;77.86;93979.28;4952876;29;20217;-82
2023/11/30 04:21:05;;;;;;;2.63;1.50;;;;;;;0.45;78.00;93974.06;4939031;29;20658;-83
2023/11/30 04:23:30;;;;;;;1.57;1.43;;;;;;;0.49;77.75;93967.75;4956653;28;20686;-83
2023/11/30 04:25:56;;;;;;;1.47;1.33;;;;;;;0.41;77.69;93963.28;4956384;28;20195;-86
2023/11/30 04:28:21;;;;;;;3.00;1.80;;;;;;;0.35;77.31;93965.50;4958705;28;20216;-83
2023/11/30 04:30:46;;;;;;;2.33;2.03;;;;;;;0.31;77.35;93969.25;4944669;29;20673;-84
2023/11/30 04:33:12;;;;;;;2.43;1.60;;;;;;;0.39;76.86;93964.34;4934717;28;20208;-83
2023/11/30 04:35:37;;;;;;;2.27;2.07;;;;;;;0.41;77.29;93973.47;4959816;28;20215;-82
2023/11/30 04:38:03;;;;;;;3.03;2.00;;;;;;;0.36;77.44;93972.25;4941668;29;20185;-83
2023/11/30 04:40:28;;;;;;;3.37;2.57;;;;;;;0.35;77.50;93976.53;4958132;28;20201;-83
2023/11/30 04:42:54;;;;;;;3.33;2.20;;;;;;;0.26;77.51;93972.97;4953174;29;20236;-83
2023/11/30 04:45:19;;;;;;;3.30;2.60;;;;;;;0.44;77.08;93975.81;4960215;28;20196;-83
2023/11/30 04:47:44;;;;;;;2.37;2.17;;;;;;;0.30;77.67;93965.91;4975008;28;20229;-83
2023/11/30 04:50:10;;;;;;;4.47;2.70;;;;;;;0.21;77.98;93970.00;4958013;29;20193;-83
2023/11/30 04:52:35;;;;;;;5.93;3.90;;;;;;;0.33;78.12;93957.16;4974960;28;20217;-83
2023/11/30 04:55:01;;;;;;;5.83;3.90;;;;;;;0.17;78.55;93960.16;4957323;28;20192;-83
2023/11/30 04:57:26;;;;;;;5.93;4.63;;;;;;;0.31;78.41;93957.28;4971803;28;20185;-83
2023/11/30 04:59:51;;;;;;;8.17;4.97;;;;;;;0.27;78.52;93958.50;4944125;29;20636;-85
2023/11/30 05:02:16;;;;;;;5.73;5.07;;;;;;;0.20;79.30;93958.16;4963642;28;20205;-84
2023/11/30 05:04:42;;;;;;;8.37;6.10;;;;;;;0.22;79.19;93960.59;4957580;28;20188;-83
2023/11/30 05:07:07;;;;;;;9.20;5.73;;;;;;;0.16;79.55;93969.56;4945766;28;20196;-83
2023/11/30 05:09:33;;;;;;;10.87;6.83;;;;;;;0.15;79.93;93962.81;4970820;28;20216;-84
2023/11/30 05:11:58;;;;;;;9.73;6.77;;;;;;;0.11;80.42;93964.03;4926223;29;20210;-83
2023/11/30 05:14:23;;;;;;;9.93;7.40;;;;;;;0.08;80.90;93953.22;4957706;29;20185;-83
2023/11/30 05:16:49;;;;;;;11.10;7.33;;;;;;;0.19;79.76;93951.44;4957705;28;20201;-84
2023/11/30 05:19:14;;;;;;;11.07;7.67;;;;;;;0.07;80.92;93946.50;4931092;28;20539;-84
2023/11/30 05:21:39;;;;;;;12.80;8.30;;;;;;;0.09;80.11;93936.97;4958240;29;20682;-84
2023/11/30 05:24:05;;;;;;;12.20;8.13;;;;;;;0.10;80.23;93936.88;4944150;28;20205;-84
2023/11/30 05:26:30;;;;;;;10.63;8.07;;;;;;;0.25;80.00;93942.47;4960304;28;20683;-84
2023/11/30 05:28:55;;;;;;;10.87;8.30;;;;;;;0.33;79.65;93941.84;4944721;28;20293;-85
2023/11/30 05:31:21;;;;;;;10.50;7.97;;;;;;;0.29;79.98;93946.41;4967345;28;20208;-85
2023/11/30 05:33:46;;;;;;;11.43;8.20;;;;;;;0.36;79.42;93951.84;4973562;28;20755;-85
2023/11/30 05:36:11;;;;;;;13.93;9.50;;;;;;;0.35;79.60;93943.34;4967664;28;20236;-84
2023/11/30 05:38:37;;;;;;;13.60;9.17;;;;;;;0.39;78.87;93951.56;4950599;28;20191;-85
2023/11/30 05:41:02;;;;;;;13.40;9.47;;;;;;;0.33;79.47;93940.09;4935151;28;20197;-84
2023/11/30 05:43:27;;;;;;;11.07;9.43;;;;;;;0.39;78.84;93937.06;4945523;29;20210;-83
2023/11/30 05:45:53;;;;;;;12.90;8.97;;;;;;;0.42;79.06;93931.69;4959384;28;20185;-84
2023/11/30 05:48:18;;;;;;;12.80;10.33;;;;;;;0.46;78.65;93933.06;4959917;28;20216;-84
2023/11/30 05:50:44;;;;;;;13.93;10.23;;;;;;;0.43;79.03;93937.59;4947562;28;20196;-84
2023/11/30 05:53:09;;;;;;;14.03;8.80;;;;;;;0.45;78.89;93928.09;4975156;28;20213;-83
2023/11/30 05:55:35;;;;;;;11.67;8.40;;;;;;;0.40;79.03;93925.91;4981866;28;20191;-83
2023/11/30 05:58:01;;;;;;;8.40;7.23;;;;;;;0.40;78.99;93922.53;4937082;28;20619;-82
2023/11/30 06:00:26;;;;;;;12.17;8.23;;;;;;;0.34;79.33;93920.47;4943526;29;20189;-84
2023/11/30 06:02:52;;;;;;;11.23;8.63;;;;;;;0.19;79.99;93925.91;4973789;28;20221;-84
2023/11/30 06:05:18;;;;;;;10.00;7.60;;;;;;;0.22;80.71;93937.63;4959563;28;20642;-85
2023/11/30 06:07:44;;;;;;;11.77;7.80;;;;;;;0.22;80.89;93935.06;4967269;28;20237;-84
2023/11/30 06:10:10;;;;;;;10.87;8.07;;;;;;;0.09;81.08;93919.94;4958940;28;20200;-84
2023/11/30 06:12:36;;;;;;;9.87;7.70;;;;;;;0.08;81.17;93928.50;4965739;28;20241;-85
2023/11/30 06:15:02;;;;;;;13.37;8.57;;;;;;;0.04;81.78;93918.69;4973278;28;20688;-85
2023/11/30 06:17:27;;;;;;;13.53;8.63;;;;;;;0.09;81.38;93917.41;4958870;28;20775;-85
2023/11/30 06:19:53;;;;;;;11.17;8.30;;;;;;;0.09;81.54;93919.13;4957128;28;20248;-84
2023/11/30 06:22:18;;;;;;;13.10;8.93;;;;;;;0.16;80.53;93918.50;4976666;28;20667;-83
2023/11/30 06:24:43;;;;;;;13.70;8.23;;;;;;;-0.04;81.29;93921.84;4973896;28;20662;-84
2023/11/30 06:27:09;;;;;;;10.77;7.77;;;;;;;0.07;81.51;93918.44;4960009;28;20207;-84
2023/11/30 06:29:34;;;;;;;10.87;8.03;;;;;;;0.02;81.30;93925.66;4972746;28;20224;-83
2023/11/30 06:32:00;;;;;;;11.87;8.57;;;;;;;-0.06;82.11;93916.06;4959785;28;20608;-84
2023/11/30 06:34:26;;;;;;;9.13;6.60;;;;;;;0.03;81.58;93896.66;4961190;28;20188;-84
2023/11/30 06:36:51;;;;;;;9.50;7.33;;;;;;;-0.04;81.78;93896.34;4926291;29;20655;-84
2023/11/30 06:39:18;;;;;;;11.63;7.40;;;;;;;-0.05;81.87;93897.28;4968332;28;20198;-84
2023/11/30 06:41:49;;;;;;;10.43;7.63;;;;;;;-0.02;81.82;93900.38;4944970;29;20191;-83
2023/11/30 06:44:15;;;;;;;10.20;7.63;;;;;;;-0.08;81.73;93898.34;4955608;28;20764;-83
2023/11/30 06:46:43;;;;;;;11.50;7.67;;;;;;;-0.11;82.17;93897.75;4958504;28;20196;-82
2023/11/30 06:49:10;;;;;;;9.20;6.90;;;;;;;-0.15;82.42;93898.97;4971409;28;20223;-83
2023/11/30 06:51:35;;;;;;;10.10;7.40;;;;;;;-0.13;82.56;93905.53;4939850;29;20193;-82
2023/11/30 06:54:00;;;;;;;9.33;7.47;;;;;;;-0.19;82.53;93906.03;4989692;28;20209;-83
2023/11/30 06:56:26;;;;;;;8.60;6.83;;;;;;;-0.21;82.26;93912.19;4951458;28;20236;-82
2023/11/30 06:58:51;;;;;;;10.73;7.67;;;;;;;-0.13;82.11;93902.19;4983351;28;20172;-83
2023/11/30 07:01:16;;;;;;;9.67;7.17;;;;;;;-0.07;81.68;93892.31;4979482;28;20173;-83
2023/11/30 07:03:43;;;;;;;10.47;7.97;;;;;;;0.03;81.65;93881.34;4982054;28;20202;-83
2023/11/30 07:06:08;;;;;;;10.00;7.07;;;;;;;-0.05;81.62;93892.16;4976629;28;20178;-83
2023/11/30 07:08:34;;;;;;;11.03;8.17;;;;;;;0.04;80.69;93886.31;4963370;28;20269;-84
2023/11/30 07:10:59;;;;;;;8.97;6.67;;;;;;;0.06;80.60;93881.91;4978953;28;20195;-83
2023/11/30 07:13:24;;;;;;;9.20;7.00;;;;;;;0.08;81.04;93876.66;4978555;28;20196;-82
2023/11/30 07:15:50;;;;;;;10.37;6.83;;;;;;;0.09;80.61;93891.88;4978774;28;20173;-84
2023/11/30 07:18:19;;;;;;;11.07;7.20;;;;;;;-0.02;80.83;93897.03;4994790;28;20184;-84
2023/11/30 07:20:45;;;;;;;8.80;6.90;;;;;;;0.06;80.68;93906.63;4963789;28;20183;-85
2023/11/30 07:23:10;;;;;;;8.70;6.80;;;;;;;0.13;79.86;93903.44;4978604;28;20205;-84
2023/11/30 07:25:36;;;;;;;11.00;7.40;;;;;;;0.19;79.45;93907.25;4982046;28;20172;-83
2023/11/30 07:28:02;;;;;;;14.17;9.20;;;;;;;0.18;79.86;93903.06;4967030;28;20272;-83
2023/11/30 07:30:28;;;;;;;11.13;8.03;;;;;;;0.24;79.54;93900.00;4993966;28;20181;-83
2023/11/30 07:32:53;;;;;;;7.63;6.47;;;;;;;0.05;79.44;93908.34;4961510;28;20194;-85
2023/11/30 07:35:19;;;;;;;10.40;7.33;;;;;;;0.31;78.64;93908.78;4979047;28;20208;-85
2023/11/30 07:37:44;;;;;;;10.50;7.33;;;;;;;0.43;78.55;93907.75;4972712;28;20218;-83
2023/11/30 07:40:10;;;;;;;7.33;6.23;;;;;;;0.45;78.92;93911.03;4939139;29;20216;-83
2023/11/30 07:42:35;;;;;;;8.67;6.83;;;;;;;0.59;77.82;93897.09;4978337;28;20209;-83
2023/11/30 07:45:03;;;;;;;7.53;6.13;;;;;;;0.62;78.08;93893.47;4948496;28;20558;-81
2023/11/30 07:47:28;;;;;;;8.63;6.60;;;;;;;0.77;77.36;93895.56;4940631;29;20193;-83
2023/11/30 07:49:54;;;;;;;9.13;6.40;;;;;;;0.76;77.18;93896.50;4955017;28;20189;-83
2023/11/30 07:52:20;;;;;;;8.00;5.97;;;;;;;0.82;76.90;93890.06;4956862;28;20205;-84
2023/11/30 07:54:46;;;;;;;6.77;5.63;;;;;;;0.84;77.18;93883.88;4971714;28;20216;-83
2023/11/30 07:57:11;;;;;;;9.33;6.40;;;;;;;0.88;76.66;93883.63;4966819;28;20214;-84
2023/11/30 07:59:37;;;;;;;8.70;5.87;;;;;;;1.01;76.91;93889.31;4959930;28;20650;-83
2023/11/30 08:02:03;;;;;;;8.80;6.23;;;;;;;0.90;77.49;93879.19;4956035;28;20199;-84
2023/11/30 08:04:29;;;;;;;7.93;6.67;;;;;;;1.12;77.42;93876.41;4976422;28;20183;-83
2023/11/30 08:06:55;;;;;;;7.97;6.50;;;;;;;1.02;78.05;93884.06;4961313;28;20283;-83
2023/11/30 08:09:20;;;;;;;9.23;6.77;;;;;;;1.11;78.00;93888.41;4974427;28;20239;-83
2023/11/30 08:11:45;;;;;;;10.03;7.50;;;;;;;1.12;78.13;93887.44;4947317;29;20244;-83
2023/11/30 08:14:11;;;;;;;8.83;6.23;;;;;;;1.18;77.85;93890.44;4975586;28;20209;-83
2023/11/30 08:16:36;;;;;;;9.70;7.40;;;;;;;1.28;77.84;93892.06;4979008;28;20247;-83
2023/11/30 08:19:01;;;;;;;9.03;6.80;;;;;;;1.22;77.57;93877.25;4960306;28;20240;-83
2023/11/30 08:21:27;;;;;;;7.60;6.70;;;;;;;1.15;77.56;93868.50;4952505;28;20247;-82
2023/11/30 08:23:53;;;;;;;8.60;6.53;;;;;;;1.10;78.05;93866.34;4957104;28;20295;-82
2023/11/30 08:26:18;;;;;;;8.53;6.63;;;;;;;1.09;78.07;93864.72;4956752;28;20271;-82
2023/11/30 08:28:45;;;;;;;9.90;6.93;;;;;;;1.23;77.39;93853.28;4963651;28;20641;-82
2023/11/30 08:31:12;;;;;;;11.33;7.87;;;;;;;1.22;77.97;93861.91;4976280;28;20268;-82
2023/11/30 08:33:38;;;;;;;10.23;7.17;;;;;;;1.25;77.63;93864.22;4956699;28;20355;-83
2023/11/30 08:36:04;;;;;;;11.23;6.97;;;;;;;1.00;78.20;93862.16;4940282;28;20693;-83
2023/11/30 08:39:03;;;;;;;12.20;8.13;;;;;;;1.15;78.86;93850.59;4958309;28;20705;-82
2023/11/30 08:41:39;;;;;;;9.70;7.43;;;;;;;1.08;78.73;93846.97;4940098;29;20737;-82
2023/11/30 08:44:05;;;;;;;9.23;7.43;;;;;;;1.21;78.35;93852.63;4977776;28;20268;-83
2023/11/30 08:46:33;;;;;;;9.47;7.37;;;;;;;1.02;79.67;93855.16;4940975;29;20181;-82
2023/11/30 08:48:59;;;;;;;11.80;8.07;;;;;;;1.14;79.61;93857.44;4952350;28;20209;-83
2023/11/30 08:51:24;;;;;;;11.77;8.30;;;;;;;1.27;78.64;93852.09;4955700;28;20191;-83
2023/11/30 08:54:00;;;;;;;11.10;7.97;;;;;;;1.41;79.06;93848.31;4942758;29;20232;-82
2023/11/30 08:56:25;;;;;;;9.97;7.53;;;;;;;1.16;79.25;93842.00;4937973;28;20201;-82
2023/11/30 08:58:51;;;;;;;12.33;8.33;;;;;;;1.47;78.20;93849.56;4950650;28;20531;-82
2023/11/30 09:01:17;;;;;;;11.30;8.27;;;;;;;1.57;77.40;93850.34;4959879;28;20579;-82
2023/11/30 09:03:43;;;;;;;11.00;8.30;;;;;;;1.49;78.16;93842.53;4955343;28;20213;-81
2023/11/30 09:06:09;;;;;;;12.93;7.67;;;;;;;1.61;78.09;93847.41;4954894;28;20189;-82
2023/11/30 09:08:34;;;;;;;10.23;7.67;;;;;;;1.83;77.13;93846.31;4956044;28;20578;-83
2023/11/30 09:10:59;;;;;;;13.70;7.50;;;;;;;1.95;76.83;93842.66;4955328;28;20193;-83
2023/11/30 09:13:25;;;;;;;9.53;7.20;;;;;;;1.93;76.24;93854.78;4954399;28;20201;-81
2023/11/30 09:15:50;;;;;;;10.47;7.20;;;;;;;1.85;76.42;93857.22;4952786;28;20194;-83
2023/11/30 09:18:16;;;;;;;9.53;7.53;;;;;;;1.86;76.40;93851.16;4937716;28;20189;-82
2023/11/30 09:20:41;;;;;;;13.37;8.20;;;;;;;1.93;76.53;93853.97;4933549;28;20192;-81
2023/11/30 09:23:06;;;;;;;11.90;7.97;;;;;;;1.66;77.47;93852.09;4956073;28;20201;-82
2023/11/30 09:25:32;;;;;;;10.13;7.83;;;;;;;2.07;77.17;93860.44;4944533;28;20267;-81
2023/11/30 09:27:58;;;;;;;12.10;8.63;;;;;;;2.22;75.84;93859.88;4956936;28;20201;-82
2023/11/30 09:30:23;;;;;;;10.93;8.13;;;;;;;2.33;75.61;93861.44;4955246;28;20189;-81
2023/11/30 09:32:50;;;;;;;10.77;8.00;;;;;;;2.44;75.05;93855.34;4941517;29;20382;-82
2023/11/30 09:35:16;;;;;;;9.97;8.13;;;;;;;2.28;75.59;93853.38;4972869;28;20268;-82
2023/11/30 09:37:42;;;;;;;9.57;8.07;;;;;;;1.98;76.23;93849.25;4949144;29;20177;-82
2023/11/30 09:40:09;;;;;;;10.67;8.23;;;;;;;2.32;75.89;93852.16;4978709;28;20205;-83
2023/11/30 09:42:34;;;;;;;9.87;7.60;;;;;;;2.08;76.83;93862.84;4958698;28;20233;-83
2023/11/30 09:45:01;;;;;;;10.93;7.53;;;;;;;2.12;76.20;93853.13;4959123;28;20676;-82
2023/11/30 09:47:26;;;;;;;9.50;7.70;;;;;;;2.24;76.53;93859.72;4966439;28;20276;-82
2023/11/30 09:49:52;;;;;;;11.40;8.10;;;;;;;2.31;76.33;93860.78;4957436;28;20236;-82
2023/11/30 09:52:17;;;;;;;11.30;8.20;;;;;;;2.15;76.71;93863.13;4955150;28;20295;-82
2023/11/30 09:54:43;;;;;;;9.53;7.60;;;;;;;2.44;75.89;93853.59;4923655;29;20239;-81
2023/11/30 09:57:08;;;;;;;11.67;7.90;;;;;;;2.44;76.39;93845.09;4944138;28;20219;-82
2023/11/30 09:59:33;;;;;;;9.53;7.67;;;;;;;2.43;76.55;93846.84;4942588;29;20181;-82
2023/11/30 10:02:02;;;;;;;11.23;8.73;;;;;;;2.59;74.88;93848.84;4954693;28;20215;-81
2023/11/30 10:04:28;;;;;;;9.57;7.33;;;;;;;2.71;75.00;93836.63;4927144;28;20203;-82
2023/11/30 10:06:55;;;;;;;11.43;8.33;;;;;;;2.76;75.01;93829.34;4971993;28;20189;-83
2023/11/30 10:09:21;;;;;;;10.47;8.23;;;;;;;2.82;74.25;93826.19;4970858;28;20224;-82
2023/11/30 10:11:46;;;;;;;9.37;7.07;;;;;;;3.10;74.22;93829.56;4970788;28;20197;-82
2023/11/30 10:14:12;;;;;;;9.87;7.27;;;;;;;3.06;74.48;93828.22;4953864;28;20240;-82
2023/11/30 10:16:37;;;;;;;9.57;6.57;;;;;;;3.08;74.25;93827.13;4941794;28;20240;-79
2023/11/30 10:19:07;;;;;;;10.43;7.67;;;;;;;3.26;73.81;93808.38;4944090;28;20196;-79
2023/11/30 10:21:32;;;;;;;8.80;6.10;;;;;;;3.25;73.90;93814.47;4938369;29;20217;-80
2023/11/30 10:23:57;;;;;;;8.73;6.70;;;;;;;3.32;73.21;93811.19;4952962;28;20233;-80
2023/11/30 10:26:24;;;;;;;10.00;6.60;;;;;;;3.25;73.94;93819.59;4940365;28;20189;-79
2023/11/30 10:28:53;;;;;;;8.57;6.40;;;;;;;3.40;73.22;93831.78;4938035;29;20268;-82
2023/11/30 10:31:22;;;;;;;8.33;6.57;;;;;;;3.35;74.04;93828.84;4939450;28;20204;-80
2023/11/30 10:33:54;;;;;;;9.13;6.90;;;;;;;3.09;74.18;93813.38;4951762;28;20633;-80
2023/11/30 10:36:19;;;;;;;9.93;6.53;;;;;;;3.46;73.70;93806.50;4936837;28;20716;-80
2023/11/30 10:38:46;;;;;;;7.50;6.00;;;;;;;3.50;73.99;93795.78;4941670;28;20185;-80
2023/11/30 10:41:19;;;;;;;7.60;5.80;;;;;;;3.53;73.70;93785.22;4954369;28;20203;-80
2023/11/30 10:43:49;;;;;;;7.70;5.87;;;;;;;3.64;72.91;93794.47;4953316;28;20289;-80
2023/11/30 10:46:14;;;;;;;7.20;5.63;;;;;;;3.65;73.72;93798.63;4952452;28;20231;-80
2023/11/30 10:48:40;;;;;;;8.50;6.23;;;;;;;3.87;72.15;93790.44;4941687;28;20217;-79
2023/11/30 10:51:07;;;;;;;9.83;6.83;;;;;;;3.59;72.84;93800.03;4937656;28;20272;-80
2023/11/30 10:53:57;;;;;;;7.97;6.37;;;;;;;3.72;73.68;93793.72;4951772;28;20209;-80
2023/11/30 10:56:22;;;;;;;7.13;5.67;;;;;;;3.69;73.99;93790.47;4954369;28;20245;-81
2023/11/30 10:58:48;;;;;;;6.70;6.00;;;;;;;3.76;73.81;93784.75;4936121;28;20271;-80
2023/11/30 11:01:16;;;;;;;6.53;5.20;;;;;;;3.95;72.72;93784.56;4957112;28;20685;-79
2023/11/30 11:03:46;;;;;;;6.10;5.27;;;;;;;4.12;73.37;93782.91;4952561;28;20652;-79
2023/11/30 11:06:11;;;;;;;5.13;4.40;;;;;;;3.90;73.42;93786.78;4942833;28;20220;-80
2023/11/30 11:08:37;;;;;;;4.60;4.00;;;;;;;3.96;74.22;93783.59;4956663;28;20222;-79
2023/11/30 11:11:07;;;;;;;3.90;3.50;;;;;;;4.08;73.01;93795.25;4954918;28;20204;-79
2023/11/30 11:13:34;;;;;;;5.27;3.57;;;;;;;3.91;74.07;93789.22;4933709;29;20205;-79
2023/11/30 11:16:02;;;;;;;4.87;3.83;;;;;;;4.12;73.58;93795.75;4950891;28;20630;-80
2023/11/30 11:18:31;;;;;;;4.17;3.53;;;;;;;4.17;73.57;93793.56;4953552;28;20182;-80
2023/11/30 11:20:58;;;;;;;4.13;3.20;;;;;;;3.88;74.65;93793.81;4925346;28;20193;-80
2023/11/30 11:23:25;;;;;;;4.93;3.30;;;;;;;4.17;73.98;93790.97;4938678;28;20238;-80
2023/11/30 11:25:50;;;;;;;3.27;2.90;;;;;;;4.62;71.20;93793.31;4951727;28;20280;-79
2023/11/30 11:28:17;;;;;;;3.73;3.33;;;;;;;4.35;72.82;93790.91;4941524;28;20576;-81
2023/11/30 11:30:49;;;;;;;6.63;3.80;;;;;;;4.08;72.90;93779.84;4957172;28;20198;-79
2023/11/30 11:33:16;;;;;;;5.27;3.43;;;;;;;4.21;72.94;93779.44;4970882;28;20229;-79